Lake Bridgeport, Texas
Current Conditions -  °F | °C
As of 3:35 PM on Wednesday 17 Dec 2014 (Local Time) from KXBP Reporting Station
Moderate Rain Moderate Rain  
Wind Chill: 43°   Ceiling: 3700
Heat Index: 43°   Visibility: 10mi
Dew Point: 41°   Wind: 0mph
Humidity: 93%   Direction: NA
Pressure: 30.12"   Gusts: NA
Location:  33.1691°N, 97.8246°W
Report Text: KXBP 172135Z AUTO 00000KT 10SM RA SCT026 OVC037 06/05 A3012 RMK AO2 LTG DSNT N P0005 T00610051
Loading
Personal Weather Stations






























Interactive Weather Map New forecast layout! Learn more

10-Day Weather Forecast

Advertisements
Track Severe Weather on mobile